Time;durP1;ratioP1;P1;durP2;ratioP2;P2;SDS_P1;SDS_P2;PMS_P1;PMS_P2;Temp;Humidity;BMP_temperature;BMP_pressure;BME280_temperature;BME280_humidity;BME280_pressure;Samples;Min_cycle;Max_cycle;Signal;HPM_P1;HPM_P2
2021/12/21 00:00:20;;;;;;;53.10;17.37;;;;;;;;;;5061931;28;20032;-80
2021/12/21 00:02:46;;;;;;;40.50;15.27;;;;;;;;;;5062390;28;20071;-80
2021/12/21 00:05:17;;;;;;;45.60;15.47;;;;;;;;;;5063912;28;20111;-81
2021/12/21 00:07:43;;;;;;;40.63;16.33;;;;;;;;;;5058607;28;20409;-81
2021/12/21 00:10:10;;;;;;;50.67;17.50;;;;;;;;;;5060552;28;20039;-81
2021/12/21 00:12:36;;;;;;;49.53;16.17;;;;;;;;;;5061167;28;20025;-81
2021/12/21 00:15:06;;;;;;;45.37;16.27;;;;;;;;;;5056170;28;20028;-80
2021/12/21 00:23:11;;;;;;;43.10;13.40;;;;;;;;;;5059619;28;20033;-81
2021/12/21 00:25:20;;;;;;;30.40;11.73;;;;;;;;;;5054283;28;20029;-81
2021/12/21 00:27:48;;;;;;;31.07;12.57;;;;;;;;;;5055355;28;20465;-81
2021/12/21 00:30:13;;;;;;;33.67;11.93;;;;;;;;;;5064530;28;20025;-80
2021/12/21 00:32:38;;;;;;;38.83;14.40;;;;;;;;;;5054812;28;20077;-81
2021/12/21 00:35:04;;;;;;;40.20;13.60;;;;;;;;;;5055863;28;20082;-81
2021/12/21 00:37:29;;;;;;;34.97;12.90;;;;;;;;;;5056644;28;20033;-81
2021/12/21 00:39:54;;;;;;;37.50;13.57;;;;;;;;;;5057047;28;20496;-81
2021/12/21 00:42:20;;;;;;;30.20;11.43;;;;;;;;;;5059885;28;20112;-81
2021/12/21 00:44:46;;;;;;;34.43;12.87;;;;;;;;;;5055208;28;20025;-81
2021/12/21 00:47:14;;;;;;;29.10;11.53;;;;;;;;;;5053526;28;20127;-81
2021/12/21 00:49:44;;;;;;;26.27;11.00;;;;;;;;;;5051979;28;20033;-81
2021/12/21 00:52:09;;;;;;;31.50;12.00;;;;;;;;;;5045814;28;20082;-82
2021/12/21 00:54:34;;;;;;;32.27;12.43;;;;;;;;;;5052039;28;20033;-80
2021/12/21 00:57:00;;;;;;;37.10;13.90;;;;;;;;;;5051414;28;20397;-81
2021/12/21 00:59:25;;;;;;;36.13;13.27;;;;;;;;;;5057466;28;20055;-81
2021/12/21 01:01:50;;;;;;;32.10;12.20;;;;;;;;;;5063307;28;20046;-81
2021/12/21 01:04:24;;;;;;;31.63;11.27;;;;;;;;;;5068462;28;20031;-81
2021/12/21 01:07:08;;;;;;;35.57;12.17;;;;;;;;;;5051208;28;20025;-80
2021/12/21 01:12:33;;;;;;;26.93;11.10;;;;;;;;;;5052764;28;20038;-81
2021/12/21 01:15:18;;;;;;;28.87;11.43;;;;;;;;;;5060163;28;20029;-81
2021/12/21 01:20:51;;;;;;;27.07;11.10;;;;;;;;;;5055277;28;20041;-81
2021/12/21 01:25:57;;;;;;;27.13;9.57;;;;;;;;;;5064495;28;20025;-81
2021/12/21 01:28:35;;;;;;;27.40;8.67;;;;;;;;;;5049787;28;20449;-81
2021/12/21 01:31:16;;;;;;;26.37;9.10;;;;;;;;;;5053130;28;20036;-81
2021/12/21 01:36:30;;;;;;;22.67;9.33;;;;;;;;;;5052516;28;20037;-81
2021/12/21 01:39:04;;;;;;;21.90;9.30;;;;;;;;;;5059141;28;20086;-80
2021/12/21 01:41:38;;;;;;;23.97;9.27;;;;;;;;;;5048989;28;20055;-81
2021/12/21 01:44:18;;;;;;;25.90;8.60;;;;;;;;;;5057122;28;20461;-81
2021/12/21 01:49:43;;;;;;;22.07;8.80;;;;;;;;;;5053334;28;20090;-81
2021/12/21 01:52:13;;;;;;;27.27;9.20;;;;;;;;;;5050167;28;20115;-81
2021/12/21 01:54:38;;;;;;;23.83;9.03;;;;;;;;;;5056188;28;20499;-81
2021/12/21 01:57:04;;;;;;;25.30;10.20;;;;;;;;;;5061924;28;20024;-81
2021/12/21 01:59:31;;;;;;;21.33;8.73;;;;;;;;;;5060336;28;20461;-81
2021/12/21 02:01:56;;;;;;;24.30;9.27;;;;;;;;;;5059511;28;20029;-81
2021/12/21 02:04:21;;;;;;;22.53;9.10;;;;;;;;;;5084274;28;20040;-81
2021/12/21 02:06:48;;;;;;;27.17;9.03;;;;;;;;;;5084205;28;20053;-81
2021/12/21 02:09:14;;;;;;;21.33;9.10;;;;;;;;;;5060150;28;20048;-81
2021/12/21 02:11:39;;;;;;;20.50;9.13;;;;;;;;;;5059330;28;20575;-81
2021/12/21 02:14:08;;;;;;;21.23;8.40;;;;;;;;;;5084267;28;20032;-81
2021/12/21 02:16:44;;;;;;;25.37;9.43;;;;;;;;;;5075832;28;20021;-81
2021/12/21 02:19:21;;;;;;;20.77;8.00;;;;;;;;;;5052543;28;20028;-81
2021/12/21 02:21:51;;;;;;;25.50;9.17;;;;;;;;;;5056825;28;20025;-81
2021/12/21 02:24:21;;;;;;;29.53;9.57;;;;;;;;;;5048836;28;20021;-82
2021/12/21 02:26:54;;;;;;;19.63;9.30;;;;;;;;;;5083939;28;20465;-81
2021/12/21 02:29:28;;;;;;;26.53;10.13;;;;;;;;;;5092586;28;20027;-82
2021/12/21 02:31:53;;;;;;;27.13;9.57;;;;;;;;;;5055597;28;20025;-81
2021/12/21 02:34:19;;;;;;;20.87;9.10;;;;;;;;;;5088987;28;20032;-81
2021/12/21 02:36:45;;;;;;;25.23;8.70;;;;;;;;;;5066512;28;20598;-81
2021/12/21 02:39:11;;;;;;;26.47;9.07;;;;;;;;;;5058553;28;20529;-81
2021/12/21 02:41:37;;;;;;;23.73;8.90;;;;;;;;;;5063323;28;20104;-81
2021/12/21 02:44:02;;;;;;;25.63;8.90;;;;;;;;;;5062335;28;20017;-82
2021/12/21 02:46:28;;;;;;;22.73;8.93;;;;;;;;;;5056695;28;20132;-82
2021/12/21 02:48:54;;;;;;;21.87;9.10;;;;;;;;;;5069857;28;20017;-82
2021/12/21 02:51:19;;;;;;;24.80;9.00;;;;;;;;;;5065643;28;20017;-81
2021/12/21 02:53:44;;;;;;;28.77;9.40;;;;;;;;;;5065028;28;20050;-81
2021/12/21 02:56:10;;;;;;;25.73;9.73;;;;;;;;;;5066067;28;20017;-81
2021/12/21 02:58:36;;;;;;;20.00;7.93;;;;;;;;;;5055658;28;20028;-82
2021/12/21 03:01:01;;;;;;;24.87;9.00;;;;;;;;;;5062035;28;20052;-82
2021/12/21 03:03:27;;;;;;;19.60;8.17;;;;;;;;;;5065336;28;20050;-82
2021/12/21 03:05:55;;;;;;;26.47;9.07;;;;;;;;;;5089969;28;20032;-82
2021/12/21 03:08:24;;;;;;;30.03;9.40;;;;;;;;;;5065330;28;20049;-81
2021/12/21 03:11:08;;;;;;;25.33;10.03;;;;;;;;;;5062078;28;20060;-81
2021/12/21 03:16:18;;;;;;;20.77;9.17;;;;;;;;;;5063933;28;20040;-80
2021/12/21 03:18:43;;;;;;;27.80;11.37;;;;;;;;;;5062127;28;20021;-82
2021/12/21 03:21:09;;;;;;;27.77;11.73;;;;;;;;;;5055442;28;20036;-81
2021/12/21 03:23:34;;;;;;;32.37;11.60;;;;;;;;;;5054671;28;20025;-82
2021/12/21 03:25:59;;;;;;;26.87;10.70;;;;;;;;;;5064447;28;20024;-81
2021/12/21 03:28:25;;;;;;;27.73;10.87;;;;;;;;;;5065872;28;20408;-82
2021/12/21 03:30:50;;;;;;;23.80;9.80;;;;;;;;;;5063499;28;20121;-81
2021/12/21 03:33:15;;;;;;;29.30;10.07;;;;;;;;;;5066168;28;20021;-82
2021/12/21 03:35:40;;;;;;;26.87;9.70;;;;;;;;;;5062173;28;20498;-81
2021/12/21 03:38:05;;;;;;;30.43;10.93;;;;;;;;;;5063275;28;20483;-82
2021/12/21 03:40:33;;;;;;;24.97;9.93;;;;;;;;;;5061960;28;20037;-82
2021/12/21 03:42:59;;;;;;;20.77;9.37;;;;;;;;;;5055369;28;20064;-81
2021/12/21 03:45:24;;;;;;;26.70;10.73;;;;;;;;;;5053918;28;20023;-81
2021/12/21 03:47:49;;;;;;;27.37;10.03;;;;;;;;;;5053668;28;20025;-81
2021/12/21 03:50:19;;;;;;;29.63;11.00;;;;;;;;;;5061690;28;20108;-82
2021/12/21 03:52:44;;;;;;;29.50;11.17;;;;;;;;;;5053445;28;20404;-81
2021/12/21 03:55:09;;;;;;;24.10;10.07;;;;;;;;;;5053541;28;20029;-81
2021/12/21 03:57:35;;;;;;;24.87;10.13;;;;;;;;;;5061308;28;20395;-81
2021/12/21 04:00:00;;;;;;;21.20;10.63;;;;;;;;;;5063261;28;20061;-82
2021/12/21 04:02:27;;;;;;;26.60;10.63;;;;;;;;;;5058972;28;20048;-81
2021/12/21 04:04:54;;;;;;;22.93;10.10;;;;;;;;;;5061599;28;20028;-82
2021/12/21 04:07:19;;;;;;;22.33;10.33;;;;;;;;;;5061174;28;20017;-82
2021/12/21 04:09:44;;;;;;;23.30;9.43;;;;;;;;;;5085999;28;20025;-81
2021/12/21 04:12:10;;;;;;;29.20;9.87;;;;;;;;;;5081765;28;20107;-81
2021/12/21 04:14:36;;;;;;;22.60;9.73;;;;;;;;;;5064768;28;20480;-81
2021/12/21 04:17:02;;;;;;;22.50;9.23;;;;;;;;;;5053648;28;20668;-82
2021/12/21 04:19:27;;;;;;;23.03;9.30;;;;;;;;;;5088540;28;20037;-82
2021/12/21 04:21:52;;;;;;;26.33;9.80;;;;;;;;;;5064806;28;20027;-81
2021/12/21 04:24:17;;;;;;;24.10;9.50;;;;;;;;;;5061768;28;20028;-81
2021/12/21 04:26:43;;;;;;;20.57;8.07;;;;;;;;;;5062135;28;20029;-81
2021/12/21 04:29:11;;;;;;;20.93;8.40;;;;;;;;;;5054264;28;20477;-82
2021/12/21 04:31:36;;;;;;;18.00;8.43;;;;;;;;;;5087623;28;20029;-82
2021/12/21 04:34:01;;;;;;;23.77;9.27;;;;;;;;;;5061025;28;20488;-81
2021/12/21 04:36:27;;;;;;;21.03;8.67;;;;;;;;;;5085548;28;20025;-81
2021/12/21 04:38:53;;;;;;;23.07;8.90;;;;;;;;;;5061012;28;20028;-82
2021/12/21 04:41:23;;;;;;;23.97;9.70;;;;;;;;;;5060641;28;20021;-81
2021/12/21 04:43:50;;;;;;;22.93;8.80;;;;;;;;;;5060756;28;20032;-81
2021/12/21 04:46:15;;;;;;;23.57;9.33;;;;;;;;;;5084926;28;20103;-81
2021/12/21 04:48:40;;;;;;;21.60;9.47;;;;;;;;;;5059211;28;20057;-81
2021/12/21 04:51:05;;;;;;;25.93;10.07;;;;;;;;;;5086622;28;20083;-81
2021/12/21 04:53:31;;;;;;;36.20;12.20;;;;;;;;;;5063844;28;20032;-81
2021/12/21 04:55:56;;;;;;;28.80;12.30;;;;;;;;;;5063301;28;20393;-81
2021/12/21 04:58:21;;;;;;;27.90;11.30;;;;;;;;;;5061564;28;20032;-81
2021/12/21 05:00:47;;;;;;;32.97;12.23;;;;;;;;;;5060165;28;20029;-81
2021/12/21 05:03:12;;;;;;;32.93;12.03;;;;;;;;;;5053993;28;20035;-81
2021/12/21 05:05:38;;;;;;;30.40;13.20;;;;;;;;;;5064121;28;20024;-81
2021/12/21 05:08:09;;;;;;;37.53;13.33;;;;;;;;;;5062284;28;20082;-81
2021/12/21 05:10:50;;;;;;;31.80;12.60;;;;;;;;;;5052524;28;20078;-81
2021/12/21 05:13:16;;;;;;;35.87;12.80;;;;;;;;;;5061891;28;20120;-81
2021/12/21 05:15:42;;;;;;;28.47;11.33;;;;;;;;;;5063426;28;20064;-81
2021/12/21 05:18:08;;;;;;;29.40;10.33;;;;;;;;;;5061712;28;20032;-81
2021/12/21 05:20:33;;;;;;;26.70;10.43;;;;;;;;;;5063368;28;20028;-82
2021/12/21 05:22:58;;;;;;;30.53;10.87;;;;;;;;;;5063340;28;20078;-81
2021/12/21 05:25:23;;;;;;;31.57;10.73;;;;;;;;;;5062449;28;20037;-82
2021/12/21 05:27:49;;;;;;;34.13;11.07;;;;;;;;;;5056487;28;20120;-82
2021/12/21 05:30:14;;;;;;;25.37;10.10;;;;;;;;;;5060396;28;20024;-82
2021/12/21 05:32:39;;;;;;;22.60;9.97;;;;;;;;;;5065849;28;20086;-81
2021/12/21 05:35:05;;;;;;;22.53;8.90;;;;;;;;;;5059297;28;20025;-81
2021/12/21 05:37:30;;;;;;;28.37;8.73;;;;;;;;;;5059637;28;20025;-82
2021/12/21 05:40:01;;;;;;;23.33;9.40;;;;;;;;;;5051672;28;20029;-81
2021/12/21 05:42:27;;;;;;;29.40;8.37;;;;;;;;;;5084388;28;20048;-82
2021/12/21 05:44:52;;;;;;;23.80;8.97;;;;;;;;;;5051037;28;20047;-81
2021/12/21 05:47:17;;;;;;;21.30;9.70;;;;;;;;;;5084126;28;20021;-81
2021/12/21 05:49:43;;;;;;;23.43;8.20;;;;;;;;;;5084685;28;20044;-82
2021/12/21 05:52:08;;;;;;;22.27;8.70;;;;;;;;;;5059565;28;20044;-81
2021/12/21 05:54:34;;;;;;;20.17;8.10;;;;;;;;;;5084033;28;20021;-81
2021/12/21 05:56:59;;;;;;;20.47;7.73;;;;;;;;;;5084181;28;20020;-81
2021/12/21 05:59:24;;;;;;;24.83;9.50;;;;;;;;;;5085399;28;20028;-81
2021/12/21 06:01:49;;;;;;;22.77;8.30;;;;;;;;;;5062932;28;20025;-82
2021/12/21 06:04:15;;;;;;;22.93;7.80;;;;;;;;;;5084364;28;20353;-81
2021/12/21 06:06:40;;;;;;;18.50;7.63;;;;;;;;;;5064154;28;20017;-82
2021/12/21 06:09:08;;;;;;;16.73;7.37;;;;;;;;;;5056380;28;20017;-81
2021/12/21 06:11:39;;;;;;;23.23;8.63;;;;;;;;;;5056690;28;20029;-81
2021/12/21 06:27:37;;;;;;;15.82;7.22;;;;;;;;;;5053409;28;20079;-81
2021/12/21 06:30:03;;;;;;;24.50;8.07;;;;;;;;;;5083880;28;20448;-81
2021/12/21 06:32:28;;;;;;;21.27;7.97;;;;;;;;;;5083869;28;20070;-82
2021/12/21 06:34:53;;;;;;;26.33;9.20;;;;;;;;;;5051037;28;20021;-81
2021/12/21 06:37:19;;;;;;;20.50;8.20;;;;;;;;;;5059342;28;20492;-81
2021/12/21 06:39:44;;;;;;;20.97;7.60;;;;;;;;;;5086727;28;20035;-81
2021/12/21 06:42:10;;;;;;;17.93;8.10;;;;;;;;;;5061954;28;20043;-81
2021/12/21 06:44:37;;;;;;;20.10;7.57;;;;;;;;;;5060172;28;20016;-81
2021/12/21 06:52:30;;;;;;;24.33;8.60;;;;;;;;;;5060648;28;20392;-82
2021/12/21 06:54:56;;;;;;;18.77;8.07;;;;;;;;;;5083709;28;20021;-81
2021/12/21 06:57:21;;;;;;;18.67;7.37;;;;;;;;;;5083380;28;20063;-82
2021/12/21 06:59:47;;;;;;;16.93;7.57;;;;;;;;;;5058702;28;20079;-81
2021/12/21 07:02:12;;;;;;;19.80;7.53;;;;;;;;;;5084367;28;20079;-82
2021/12/21 07:04:37;;;;;;;20.30;7.60;;;;;;;;;;5083357;28;20079;-81
2021/12/21 07:07:03;;;;;;;22.93;7.43;;;;;;;;;;5055190;28;20017;-81
2021/12/21 07:09:35;;;;;;;16.03;6.67;;;;;;;;;;5048776;28;20029;-81
2021/12/21 07:20:09;;;;;;;15.63;7.20;;;;;;;;;;5050513;28;20092;-81
2021/12/21 07:22:34;;;;;;;24.13;8.73;;;;;;;;;;5085126;28;20021;-81
2021/12/21 07:25:00;;;;;;;27.70;9.50;;;;;;;;;;5058534;28;20027;-81
2021/12/21 07:27:25;;;;;;;28.77;10.27;;;;;;;;;;5087120;28;20017;-81
2021/12/21 07:29:50;;;;;;;19.83;9.17;;;;;;;;;;5060919;28;20032;-81
2021/12/21 07:32:16;;;;;;;26.93;10.60;;;;;;;;;;5085525;28;20045;-81
2021/12/21 07:34:42;;;;;;;24.10;9.80;;;;;;;;;;5055082;28;20098;-84
2021/12/21 07:37:09;;;;;;;20.67;8.93;;;;;;;;;;5078582;28;20534;-81
2021/12/21 07:39:35;;;;;;;26.97;9.23;;;;;;;;;;5052401;28;20642;-81
2021/12/21 07:42:00;;;;;;;19.67;7.87;;;;;;;;;;5053592;28;20116;-81
2021/12/21 07:44:26;;;;;;;16.77;8.13;;;;;;;;;;5083768;28;20021;-82
2021/12/21 07:46:51;;;;;;;27.27;9.27;;;;;;;;;;5050627;28;20373;-81
2021/12/21 07:49:16;;;;;;;27.23;8.47;;;;;;;;;;5085624;28;20166;-81
2021/12/21 07:51:42;;;;;;;27.57;9.77;;;;;;;;;;5074077;28;20028;-82
2021/12/21 07:54:07;;;;;;;24.87;8.30;;;;;;;;;;5053290;28;20025;-82
2021/12/21 07:56:32;;;;;;;23.33;8.83;;;;;;;;;;5052305;28;20815;-81
2021/12/21 07:58:58;;;;;;;22.80;8.07;;;;;;;;;;5067464;28;20024;-82
2021/12/21 08:01:23;;;;;;;23.17;8.43;;;;;;;;;;5050732;28;20468;-83
2021/12/21 08:03:49;;;;;;;24.27;8.17;;;;;;;;;;5052515;28;20019;-82
2021/12/21 08:06:15;;;;;;;19.93;7.97;;;;;;;;;;5051037;28;20013;-82
2021/12/21 08:08:43;;;;;;;25.07;8.07;;;;;;;;;;5051753;28;20021;-82
2021/12/21 08:12:10;;;;;;;23.20;9.47;;;;;;;;;;5046919;28;20365;-81
2021/12/21 08:14:13;;;;;;;24.10;9.10;;;;;;;;;;5049738;28;20480;-82
2021/12/21 08:16:38;;;;;;;14.87;7.87;;;;;;;;;;5057063;28;20053;-82
2021/12/21 08:19:03;;;;;;;20.77;8.23;;;;;;;;;;5057232;28;20036;-82
2021/12/21 08:21:30;;;;;;;20.23;8.47;;;;;;;;;;5052485;28;20122;-82
2021/12/21 08:23:55;;;;;;;21.03;9.23;;;;;;;;;;5056593;28;20021;-82
2021/12/21 08:26:20;;;;;;;21.50;8.90;;;;;;;;;;5082824;28;20033;-82
2021/12/21 08:28:45;;;;;;;21.53;9.13;;;;;;;;;;5084176;28;20051;-81
2021/12/21 08:31:14;;;;;;;22.47;9.30;;;;;;;;;;5083689;28;20078;-82
2021/12/21 08:33:40;;;;;;;23.50;9.13;;;;;;;;;;5061134;28;20453;-82
2021/12/21 08:36:06;;;;;;;34.20;12.77;;;;;;;;;;5091760;28;20078;-81
2021/12/21 08:38:32;;;;;;;32.10;14.57;;;;;;;;;;5058324;28;20029;-81
2021/12/21 08:40:59;;;;;;;48.07;18.10;;;;;;;;;;5057257;28;20056;-81
2021/12/21 08:43:25;;;;;;;50.33;20.83;;;;;;;;;;5053891;28;20028;-82
2021/12/21 08:45:52;;;;;;;51.50;20.03;;;;;;;;;;5062706;28;20033;-82
2021/12/21 08:48:17;;;;;;;48.23;19.77;;;;;;;;;;5069771;28;20040;-81
2021/12/21 08:50:43;;;;;;;49.53;18.37;;;;;;;;;;5061830;28;20059;-81
2021/12/21 08:53:08;;;;;;;44.93;16.97;;;;;;;;;;5053254;28;20123;-82
2021/12/21 08:55:34;;;;;;;40.60;15.50;;;;;;;;;;5064247;28;20404;-81
2021/12/21 08:57:59;;;;;;;40.73;15.73;;;;;;;;;;5053052;28;20048;-81
2021/12/21 09:00:24;;;;;;;38.97;15.70;;;;;;;;;;5057282;28;20024;-81
2021/12/21 09:02:50;;;;;;;42.93;17.10;;;;;;;;;;5057752;28;20040;-81
2021/12/21 09:05:18;;;;;;;39.90;16.77;;;;;;;;;;5054949;28;20029;-82
2021/12/21 09:07:44;;;;;;;40.20;15.57;;;;;;;;;;5055319;28;20013;-81
2021/12/21 09:10:11;;;;;;;43.63;14.87;;;;;;;;;;5054608;28;20431;-81
2021/12/21 09:12:36;;;;;;;33.50;13.87;;;;;;;;;;5058231;28;20116;-82
2021/12/21 09:15:02;;;;;;;35.37;12.93;;;;;;;;;;5056817;28;20119;-81
2021/12/21 09:17:28;;;;;;;23.97;10.80;;;;;;;;;;5067494;28;20032;-81
2021/12/21 09:19:53;;;;;;;26.70;10.13;;;;;;;;;;5056602;28;20021;-82
2021/12/21 09:22:19;;;;;;;28.47;11.87;;;;;;;;;;5059512;28;20082;-81
2021/12/21 09:24:44;;;;;;;30.90;12.87;;;;;;;;;;5055818;28;20036;-81
2021/12/21 09:27:11;;;;;;;31.77;12.33;;;;;;;;;;5080501;28;20028;-81
2021/12/21 09:29:38;;;;;;;30.63;11.90;;;;;;;;;;5052357;28;20373;-81
2021/12/21 09:32:04;;;;;;;33.73;12.97;;;;;;;;;;5050179;28;20033;-82
2021/12/21 09:34:29;;;;;;;37.63;13.63;;;;;;;;;;5059061;28;20025;-82
2021/12/21 09:36:54;;;;;;;34.23;13.03;;;;;;;;;;5057352;28;20052;-81
2021/12/21 09:39:19;;;;;;;38.67;14.20;;;;;;;;;;5059111;28;20035;-81
2021/12/21 09:41:45;;;;;;;37.53;13.50;;;;;;;;;;5053299;28;20024;-81
2021/12/21 09:44:11;;;;;;;39.83;13.70;;;;;;;;;;5058806;28;20020;-81
2021/12/21 09:46:36;;;;;;;29.80;12.90;;;;;;;;;;5051035;28;20560;-81
2021/12/21 09:49:01;;;;;;;28.37;13.17;;;;;;;;;;5053272;28;20013;-81
2021/12/21 09:51:27;;;;;;;33.10;13.33;;;;;;;;;;5056407;28;20032;-81
2021/12/21 09:53:55;;;;;;;30.80;12.90;;;;;;;;;;5055676;28;20092;-82
2021/12/21 09:56:20;;;;;;;25.80;12.00;;;;;;;;;;5053341;28;20108;-81
2021/12/21 09:58:46;;;;;;;33.03;13.17;;;;;;;;;;5051483;28;20088;-82
2021/12/21 10:01:11;;;;;;;31.83;14.17;;;;;;;;;;5052587;28;20123;-81
2021/12/21 10:03:36;;;;;;;36.03;15.33;;;;;;;;;;5051972;28;20495;-82
2021/12/21 10:06:06;;;;;;;33.63;14.40;;;;;;;;;;5056153;28;20019;-82
2021/12/21 10:08:32;;;;;;;33.03;13.57;;;;;;;;;;5057300;28;20055;-82
2021/12/21 10:10:58;;;;;;;28.93;13.93;;;;;;;;;;5051768;28;20052;-81
2021/12/21 10:13:24;;;;;;;29.13;14.43;;;;;;;;;;5053926;28;20048;-82
2021/12/21 10:15:50;;;;;;;32.17;14.53;;;;;;;;;;5050382;28;20027;-81
2021/12/21 10:18:26;;;;;;;36.43;15.57;;;;;;;;;;5052847;28;20017;-81
2021/12/21 10:20:52;;;;;;;32.17;14.47;;;;;;;;;;5049129;28;20631;-82
2021/12/21 10:23:19;;;;;;;32.07;15.03;;;;;;;;;;5050730;28;20059;-82
2021/12/21 10:26:04;;;;;;;36.93;15.80;;;;;;;;;;5056617;28;20098;-81
2021/12/21 10:28:33;;;;;;;27.67;14.07;;;;;;;;;;5055927;28;20452;-81
2021/12/21 10:31:00;;;;;;;27.50;12.93;;;;;;;;;;5052663;28;20499;-81
2021/12/21 10:33:26;;;;;;;27.13;13.53;;;;;;;;;;5054098;28;20067;-82
2021/12/21 10:35:53;;;;;;;29.10;13.73;;;;;;;;;;5060013;28;20025;-81
2021/12/21 10:38:25;;;;;;;33.70;16.40;;;;;;;;;;5055556;28;20009;-81
2021/12/21 10:40:51;;;;;;;32.00;15.07;;;;;;;;;;5048718;28;20104;-81
2021/12/21 10:43:16;;;;;;;28.40;13.70;;;;;;;;;;5052642;28;20553;-81
2021/12/21 10:45:44;;;;;;;33.00;14.63;;;;;;;;;;5051921;28;20033;-81
2021/12/21 10:48:19;;;;;;;29.70;13.30;;;;;;;;;;5054885;28;20024;-81
2021/12/21 10:50:45;;;;;;;42.37;14.13;;;;;;;;;;5054243;28;20464;-81
2021/12/21 10:53:18;;;;;;;25.63;12.13;;;;;;;;;;5071298;28;20023;-81
2021/12/21 10:55:43;;;;;;;30.23;12.10;;;;;;;;;;5056027;28;20021;-82
2021/12/21 10:58:15;;;;;;;26.20;11.43;;;;;;;;;;5054657;28;20388;-82
2021/12/21 11:00:47;;;;;;;28.15;11.77;;;;;;;;;;5056105;28;20657;-82
2021/12/21 11:03:17;;;;;;;24.90;12.07;;;;;;;;;;5054081;28;20040;-81
2021/12/21 11:05:43;;;;;;;27.93;11.50;;;;;;;;;;5073318;28;20021;-81
2021/12/21 11:08:27;;;;;;;24.33;10.63;;;;;;;;;;5060707;28;20025;-81
2021/12/21 11:10:56;;;;;;;27.80;11.40;;;;;;;;;;5066693;28;20687;-81
2021/12/21 11:13:21;;;;;;;20.03;10.03;;;;;;;;;;5054831;28;20500;-81
2021/12/21 11:15:52;;;;;;;22.60;7.53;;;;;;;;;;5057519;28;20111;-82
2021/12/21 11:18:18;;;;;;;19.20;7.60;;;;;;;;;;5054714;28;20082;-82
2021/12/21 11:20:45;;;;;;;16.83;6.93;;;;;;;;;;5063727;28;20623;-82
2021/12/21 11:23:12;;;;;;;20.10;7.60;;;;;;;;;;5087087;28;20104;-82
2021/12/21 11:25:38;;;;;;;16.50;6.90;;;;;;;;;;5064043;28;20039;-81
2021/12/21 11:28:04;;;;;;;19.33;7.20;;;;;;;;;;5063272;28;20013;-82
2021/12/21 11:30:31;;;;;;;14.50;6.80;;;;;;;;;;5080740;28;20037;-82
2021/12/21 11:32:57;;;;;;;17.73;8.20;;;;;;;;;;5084660;28;20464;-82
2021/12/21 11:37:51;;;;;;;17.43;6.57;;;;;;;;;;5063251;28;20081;-82
2021/12/21 11:40:17;;;;;;;16.53;7.17;;;;;;;;;;5058609;28;20446;-82
2021/12/21 11:43:00;;;;;;;13.50;5.90;;;;;;;;;;5060600;28;20029;-81
2021/12/21 11:45:33;;;;;;;18.60;6.37;;;;;;;;;;5086275;28;20028;-81
2021/12/21 11:48:06;;;;;;;14.47;6.27;;;;;;;;;;5062235;28;20028;-82
2021/12/21 11:50:31;;;;;;;17.90;6.67;;;;;;;;;;5082280;28;20175;-82
2021/12/21 11:53:01;;;;;;;13.50;5.67;;;;;;;;;;5067734;28;20059;-82
2021/12/21 11:55:27;;;;;;;13.53;6.40;;;;;;;;;;5054053;28;20467;-82
2021/12/21 11:57:54;;;;;;;14.33;6.50;;;;;;;;;;5075030;28;20024;-81
2021/12/21 12:00:19;;;;;;;14.30;6.47;;;;;;;;;;5059547;28;20752;-82
2021/12/21 12:02:46;;;;;;;17.40;7.07;;;;;;;;;;5053533;28;20017;-82
2021/12/21 12:05:22;;;;;;;15.20;6.73;;;;;;;;;;5052999;28;20535;-82
2021/12/21 12:07:58;;;;;;;19.00;7.60;;;;;;;;;;5054573;28;20051;-81
2021/12/21 12:10:23;;;;;;;20.13;8.00;;;;;;;;;;5063079;28;20112;-82
2021/12/21 12:12:48;;;;;;;16.63;8.10;;;;;;;;;;5078637;28;20112;-81
2021/12/21 12:15:15;;;;;;;20.40;9.17;;;;;;;;;;5053294;28;20151;-81
2021/12/21 12:17:44;;;;;;;20.43;8.77;;;;;;;;;;5053121;28;20453;-82
2021/12/21 12:20:10;;;;;;;21.30;8.47;;;;;;;;;;5082836;28;20025;-81
2021/12/21 12:22:39;;;;;;;20.73;8.17;;;;;;;;;;5055965;28;20052;-82
2021/12/21 12:25:06;;;;;;;20.97;7.70;;;;;;;;;;5053969;28;20388;-82
2021/12/21 12:27:31;;;;;;;20.80;8.17;;;;;;;;;;5078916;28;20380;-82
2021/12/21 12:30:01;;;;;;;19.50;8.80;;;;;;;;;;5056485;28;20033;-82
2021/12/21 12:32:37;;;;;;;19.67;8.53;;;;;;;;;;5074288;28;20020;-81
2021/12/21 12:35:13;;;;;;;21.57;8.53;;;;;;;;;;5052847;28;20032;-81
2021/12/21 12:38:02;;;;;;;22.30;9.03;;;;;;;;;;5054177;28;20025;-81
2021/12/21 12:40:28;;;;;;;17.63;7.77;;;;;;;;;;5063635;28;20067;-82
2021/12/21 12:43:08;;;;;;;14.80;7.27;;;;;;;;;;5055507;28;20480;-81
2021/12/21 12:45:35;;;;;;;15.13;7.17;;;;;;;;;;5046310;28;20021;-82
2021/12/21 12:48:01;;;;;;;18.50;7.73;;;;;;;;;;5076460;28;20075;-82
2021/12/21 12:50:32;;;;;;;17.13;7.20;;;;;;;;;;5053952;28;20020;-80
2021/12/21 12:52:57;;;;;;;14.67;6.57;;;;;;;;;;5064784;28;20024;-81
2021/12/21 12:55:23;;;;;;;16.70;6.43;;;;;;;;;;5056929;28;20025;-82
2021/12/21 12:57:57;;;;;;;14.17;6.90;;;;;;;;;;5053744;28;20025;-81
2021/12/21 13:00:25;;;;;;;12.00;6.40;;;;;;;;;;5081312;28;20048;-82
2021/12/21 13:02:57;;;;;;;15.30;6.70;;;;;;;;;;5083149;28;20720;-82
2021/12/21 13:05:26;;;;;;;17.05;7.07;;;;;;;;;;5053824;28;20032;-82
2021/12/21 13:07:51;;;;;;;18.50;7.27;;;;;;;;;;5056275;28;20430;-81
2021/12/21 13:10:17;;;;;;;19.30;6.70;;;;;;;;;;5081369;28;20036;-82
2021/12/21 13:12:42;;;;;;;17.90;7.40;;;;;;;;;;5080659;28;20541;-81
2021/12/21 13:15:07;;;;;;;17.13;7.50;;;;;;;;;;5057094;28;20060;-82
2021/12/21 13:17:33;;;;;;;17.63;7.10;;;;;;;;;;5083586;28;20028;-81
2021/12/21 13:19:58;;;;;;;16.80;7.67;;;;;;;;;;5051290;28;20037;-81
2021/12/21 13:22:25;;;;;;;20.73;7.33;;;;;;;;;;5054253;28;20020;-82
2021/12/21 13:24:52;;;;;;;16.20;6.93;;;;;;;;;;5051565;28;20032;-82
2021/12/21 13:27:19;;;;;;;16.00;7.40;;;;;;;;;;5054399;28;20542;-81
2021/12/21 13:29:44;;;;;;;19.13;7.97;;;;;;;;;;5079412;28;20021;-81
2021/12/21 13:32:11;;;;;;;16.60;7.60;;;;;;;;;;5054345;28;20490;-81
2021/12/21 13:34:39;;;;;;;18.30;7.97;;;;;;;;;;5049594;28;20021;-81
2021/12/21 13:37:08;;;;;;;19.10;7.93;;;;;;;;;;5051716;28;20599;-81
2021/12/21 13:39:35;;;;;;;22.20;8.13;;;;;;;;;;5052684;28;20024;-81
2021/12/21 13:42:02;;;;;;;17.07;8.30;;;;;;;;;;5053633;28;20021;-81
2021/12/21 13:44:31;;;;;;;18.17;7.73;;;;;;;;;;5053990;28;20031;-81
2021/12/21 13:46:58;;;;;;;21.87;8.23;;;;;;;;;;5083301;28;20025;-81
2021/12/21 13:49:23;;;;;;;17.47;7.33;;;;;;;;;;5049913;28;20028;-82
2021/12/21 13:51:56;;;;;;;19.93;7.20;;;;;;;;;;5050215;28;20021;-81
2021/12/21 13:54:22;;;;;;;17.83;7.37;;;;;;;;;;5047836;28;20027;-81
2021/12/21 13:56:48;;;;;;;16.40;7.27;;;;;;;;;;5045606;28;20028;-81
2021/12/21 13:59:14;;;;;;;14.83;7.17;;;;;;;;;;5077726;28;20483;-81
2021/12/21 14:01:41;;;;;;;22.57;7.93;;;;;;;;;;5073807;28;20029;-81
2021/12/21 14:04:10;;;;;;;16.03;7.63;;;;;;;;;;5043492;28;20035;-81
2021/12/21 14:06:37;;;;;;;17.83;7.60;;;;;;;;;;5047301;28;20461;-81
2021/12/21 14:09:04;;;;;;;24.13;8.03;;;;;;;;;;5049454;28;20020;-81
2021/12/21 14:11:30;;;;;;;26.20;7.60;;;;;;;;;;5052859;28;20079;-82
2021/12/21 14:13:56;;;;;;;23.90;7.70;;;;;;;;;;5060472;28;20033;-82
2021/12/21 14:16:23;;;;;;;16.03;7.53;;;;;;;;;;5052284;28;20028;-81
2021/12/21 14:18:49;;;;;;;18.37;7.17;;;;;;;;;;5051035;28;20083;-81
2021/12/21 14:21:19;;;;;;;13.70;7.07;;;;;;;;;;5079266;28;20465;-81
2021/12/21 14:23:49;;;;;;;22.80;7.20;;;;;;;;;;5077533;28;20052;-81
2021/12/21 14:26:23;;;;;;;20.07;6.83;;;;;;;;;;5081654;28;20472;-82
2021/12/21 14:28:50;;;;;;;22.80;6.70;;;;;;;;;;5051294;28;20028;-81
2021/12/21 14:31:18;;;;;;;14.63;6.93;;;;;;;;;;5049900;28;20028;-81
2021/12/21 14:33:48;;;;;;;18.00;7.17;;;;;;;;;;5078226;28;20044;-82
2021/12/21 14:36:15;;;;;;;15.63;7.10;;;;;;;;;;5078750;28;20059;-81
2021/12/21 14:38:52;;;;;;;13.27;6.70;;;;;;;;;;5053753;28;20021;-82
2021/12/21 14:41:19;;;;;;;18.17;7.07;;;;;;;;;;5082920;28;20021;-82
2021/12/21 14:43:44;;;;;;;18.73;7.23;;;;;;;;;;5051335;28;20033;-81
2021/12/21 14:46:16;;;;;;;19.30;7.83;;;;;;;;;;5052765;28;20090;-81
2021/12/21 14:48:47;;;;;;;19.03;8.63;;;;;;;;;;5050758;28;20032;-82
2021/12/21 14:51:13;;;;;;;17.27;8.40;;;;;;;;;;5050393;28;20078;-82
2021/12/21 14:53:47;;;;;;;25.10;8.73;;;;;;;;;;5049875;28;20530;-82
2021/12/21 14:56:13;;;;;;;20.53;9.20;;;;;;;;;;5063321;28;20091;-82
2021/12/21 14:58:38;;;;;;;17.60;8.83;;;;;;;;;;5062296;28;20124;-81
2021/12/21 15:01:05;;;;;;;19.73;8.87;;;;;;;;;;5063480;28;20116;-82
2021/12/21 15:03:38;;;;;;;20.40;9.10;;;;;;;;;;5082098;28;20055;-82
2021/12/21 15:06:04;;;;;;;20.73;8.90;;;;;;;;;;5061971;28;20020;-82
2021/12/21 15:08:32;;;;;;;21.10;9.90;;;;;;;;;;5087036;28;20025;-82
2021/12/21 15:10:57;;;;;;;24.53;9.43;;;;;;;;;;5087705;28;20032;-82
2021/12/21 15:13:22;;;;;;;22.83;9.47;;;;;;;;;;5087702;28;20025;-82
2021/12/21 15:15:49;;;;;;;21.93;10.13;;;;;;;;;;5055495;28;20024;-81
2021/12/21 15:18:14;;;;;;;25.47;10.37;;;;;;;;;;5055145;28;20373;-82